Time;durP1;ratioP1;P1;durP2;ratioP2;P2;SDS_P1;SDS_P2;PMS_P1;PMS_P2;Temp;Humidity;BMP_temperature;BMP_pressure;BME280_temperature;BME280_humidity;BME280_pressure;Samples;Min_cycle;Max_cycle;Signal;HPM_P1;HPM_P2
2024/02/06 00:01:23;;;;;;;;;;;;;;;;;;4147697;28;19948;-60
2024/02/06 00:03:24;;;;;;;;;;;;;;;;;;4147538;28;19922;-60
2024/02/06 00:05:26;;;;;;;;;;;;;;;;;;4148032;28;19921;-60
2024/02/06 00:07:28;;;;;;;;;;;;;;;;;;4147717;28;19921;-60
2024/02/06 00:09:33;;;;;;;;;;;;;;;;;;4147822;28;19979;-60
2024/02/06 00:11:34;;;;;;;;;;;;;;;;;;4149371;28;20392;-60
2024/02/06 00:13:37;;;;;;;;;;;;;;;;;;4150963;28;20001;-59
2024/02/06 00:15:38;;;;;;;;;;;;;;;;;;4150713;28;20020;-59
2024/02/06 00:17:40;;;;;;;;;;;;;;;;;;4150551;28;20290;-59
2024/02/06 00:19:42;;;;;;;;;;;;;;;;;;4150776;28;20445;-60
2024/02/06 00:21:43;;;;;;;;;;;;;;;;;;4150604;28;20341;-60
2024/02/06 00:23:45;;;;;;;;;;;;;;;;;;4150695;28;19925;-60
2024/02/06 00:25:46;;;;;;;;;;;;;;;;;;4150637;28;19929;-59
2024/02/06 00:27:48;;;;;;;;;;;;;;;;;;4150632;28;19984;-60
2024/02/06 00:29:54;;;;;;;;;;;;;;;;;;4150597;28;19925;-59
2024/02/06 00:31:56;;;;;;;;;;;;;;;;;;4150761;28;19921;-60
2024/02/06 00:33:57;;;;;;;;;;;;;;;;;;4150314;28;19921;-60
2024/02/06 00:36:01;;;;;;;;;;;;;;;;;;4150782;28;19925;-59
2024/02/06 00:38:02;;;;;;;;;;;;;;;;;;4150489;28;20262;-59
2024/02/06 00:40:04;;;;;;;;;;;;;;;;;;4150372;28;19922;-59
2024/02/06 00:42:05;;;;;;;;;;;;;;;;;;4150410;28;20384;-59
2024/02/06 00:44:07;;;;;;;;;;;;;;;;;;4150549;28;19930;-59
2024/02/06 00:46:08;;;;;;;;;;;;;;;;;;4150370;28;19937;-59
2024/02/06 00:48:10;;;;;;;;;;;;;;;;;;4150151;28;20357;-60
2024/02/06 00:50:11;;;;;;;;;;;;;;;;;;4149812;28;19921;-60
2024/02/06 00:52:13;;;;;;;;;;;;;;;;;;4150426;28;19933;-60
2024/02/06 00:54:15;;;;;;;;;;;;;;;;;;4149001;28;19921;-60
2024/02/06 00:56:16;;;;;;;;;;;;;;;;;;4150331;28;19925;-59
2024/02/06 00:58:18;;;;;;;;;;;;;;;;;;4149914;28;19932;-60
2024/02/06 01:00:20;;;;;;;;;;;;;;;;;;4149963;28;19984;-60
2024/02/06 01:02:23;;;;;;;;;;;;;;;;;;4147909;28;19922;-60
2024/02/06 01:04:25;;;;;;;;;;;;;;;;;;4149990;28;19928;-61
2024/02/06 01:06:27;;;;;;;;;;;;;;;;;;4149913;28;19988;-61
2024/02/06 01:08:28;;;;;;;;;;;;;;;;;;4150020;28;19929;-61
2024/02/06 01:10:30;;;;;;;;;;;;;;;;;;4149894;28;19971;-61
2024/02/06 01:12:31;;;;;;;;;;;;;;;;;;4150170;28;19921;-61
2024/02/06 01:14:33;;;;;;;;;;;;;;;;;;4150058;28;20000;-61
2024/02/06 01:16:34;;;;;;;;;;;;;;;;;;4149742;28;19926;-61
2024/02/06 01:18:36;;;;;;;;;;;;;;;;;;4149993;28;20234;-61
2024/02/06 01:20:37;;;;;;;;;;;;;;;;;;4149678;28;19964;-60
2024/02/06 01:22:39;;;;;;;;;;;;;;;;;;4149589;28;19921;-61
2024/02/06 01:24:40;;;;;;;;;;;;;;;;;;4149970;28;19929;-61
2024/02/06 01:26:42;;;;;;;;;;;;;;;;;;4149783;28;19948;-61
2024/02/06 01:28:45;;;;;;;;;;;;;;;;;;4149842;28;20362;-61
2024/02/06 01:30:47;;;;;;;;;;;;;;;;;;4149651;28;19936;-60
2024/02/06 01:32:48;;;;;;;;;;;;;;;;;;4149541;28;20274;-60
2024/02/06 01:34:50;;;;;;;;;;;;;;;;;;4149896;28;19961;-61
2024/02/06 01:36:52;;;;;;;;;;;;;;;;;;4132001;28;20012;-61
2024/02/06 01:38:53;;;;;;;;;;;;;;;;;;4149526;28;20356;-61
2024/02/06 01:40:55;;;;;;;;;;;;;;;;;;4149546;28;20368;-60
2024/02/06 01:42:56;;;;;;;;;;;;;;;;;;4149452;28;20004;-61
2024/02/06 01:44:58;;;;;;;;;;;;;;;;;;4149393;28;19932;-61
2024/02/06 01:47:00;;;;;;;;;;;;;;;;;;4149293;28;19922;-61
2024/02/06 01:49:01;;;;;;;;;;;;;;;;;;4149226;28;20417;-61
2024/02/06 01:51:03;;;;;;;;;;;;;;;;;;4149204;28;19925;-61
2024/02/06 01:53:04;;;;;;;;;;;;;;;;;;4148897;28;19929;-61
2024/02/06 01:55:06;;;;;;;;;;;;;;;;;;4149306;28;19922;-61
2024/02/06 01:57:07;;;;;;;;;;;;;;;;;;4148904;28;19929;-61
2024/02/06 01:59:08;;;;;;;;;;;;;;;;;;4149187;28;20016;-61
2024/02/06 02:01:10;;;;;;;;;;;;;;;;;;4149415;28;19921;-61
2024/02/06 02:03:11;;;;;;;;;;;;;;;;;;4166955;23;19931;-60
2024/02/06 02:05:13;;;;;;;;;;;;;;;;;;4185392;28;19925;-65
2024/02/06 02:07:15;;;;;;;;;;;;;;;;;;4149408;28;19925;-65
2024/02/06 02:09:17;;;;;;;;;;;;;;;;;;4149470;28;19925;-65
2024/02/06 02:11:18;;;;;;;;;;;;;;;;;;4149371;28;20269;-65
2024/02/06 02:13:20;;;;;;;;;;;;;;;;;;4149028;28;20426;-66
2024/02/06 02:15:22;;;;;;;;;;;;;;;;;;4148971;28;20295;-65
2024/02/06 02:17:23;;;;;;;;;;;;;;;;;;4147687;28;19922;-65
2024/02/06 02:19:25;;;;;;;;;;;;;;;;;;4155943;28;19924;-65
2024/02/06 02:21:26;;;;;;;;;;;;;;;;;;4152411;28;19968;-65
2024/02/06 02:23:28;;;;;;;;;;;;;;;;;;4153062;28;19932;-66
2024/02/06 02:25:30;;;;;;;;;;;;;;;;;;4165117;28;19920;-64
2024/02/06 02:27:31;;;;;;;;;;;;;;;;;;4165199;28;19928;-65
2024/02/06 02:29:33;;;;;;;;;;;;;;;;;;4180460;28;19920;-65
2024/02/06 02:31:39;;;;;;;;;;;;;;;;;;4165153;28;19925;-65
2024/02/06 02:33:40;;;;;;;;;;;;;;;;;;4164659;28;20296;-66
2024/02/06 02:35:42;;;;;;;;;;;;;;;;;;4165354;28;19921;-65
2024/02/06 02:37:43;;;;;;;;;;;;;;;;;;4165028;28;19921;-65
2024/02/06 02:39:45;;;;;;;;;;;;;;;;;;4165003;28;19925;-65
2024/02/06 02:41:49;;;;;;;;;;;;;;;;;;4164876;28;20223;-66
2024/02/06 02:43:50;;;;;;;;;;;;;;;;;;4164783;28;19925;-65
2024/02/06 02:45:52;;;;;;;;;;;;;;;;;;4164773;28;19932;-65
2024/02/06 02:47:53;;;;;;;;;;;;;;;;;;4163484;28;19921;-64
2024/02/06 02:49:55;;;;;;;;;;;;;;;;;;4164580;28;19921;-64
2024/02/06 02:51:56;;;;;;;;;;;;;;;;;;4164672;28;19925;-65
2024/02/06 02:53:58;;;;;;;;;;;;;;;;;;4165071;28;19948;-65
2024/02/06 02:55:59;;;;;;;;;;;;;;;;;;4164781;28;19921;-65
2024/02/06 02:58:01;;;;;;;;;;;;;;;;;;4164332;28;19921;-65
2024/02/06 03:00:03;;;;;;;;;;;;;;;;;;4164748;28;19921;-64
2024/02/06 03:02:04;;;;;;;;;;;;;;;;;;4179938;28;19920;-65
2024/02/06 03:04:06;;;;;;;;;;;;;;;;;;4164525;28;19947;-66
2024/02/06 03:06:09;;;;;;;;;;;;;;;;;;4164578;28;20438;-64
2024/02/06 03:08:10;;;;;;;;;;;;;;;;;;4161778;28;19943;-65
2024/02/06 03:10:12;;;;;;;;;;;;;;;;;;4155852;28;19921;-66
2024/02/06 03:12:13;;;;;;;;;;;;;;;;;;4164524;28;19967;-65
2024/02/06 03:14:15;;;;;;;;;;;;;;;;;;4165066;28;19928;-64
2024/02/06 03:16:16;;;;;;;;;;;;;;;;;;4164378;28;19932;-65
2024/02/06 03:18:18;;;;;;;;;;;;;;;;;;4167072;28;19975;-65
2024/02/06 03:20:20;;;;;;;;;;;;;;;;;;4177032;28;19924;-65
2024/02/06 03:22:21;;;;;;;;;;;;;;;;;;4179970;28;20023;-65
2024/02/06 03:24:27;;;;;;;;;;;;;;;;;;4180979;28;20458;-65
2024/02/06 03:26:29;;;;;;;;;;;;;;;;;;4180902;28;19928;-65
2024/02/06 03:28:33;;;;;;;;;;;;;;;;;;4175067;28;19921;-64
2024/02/06 03:30:35;;;;;;;;;;;;;;;;;;4164060;28;19948;-65
2024/02/06 03:32:36;;;;;;;;;;;;;;;;;;4162834;28;20608;-65
2024/02/06 03:34:38;;;;;;;;;;;;;;;;;;4162838;28;19925;-65
2024/02/06 03:36:39;;;;;;;;;;;;;;;;;;4162945;28;19975;-65
2024/02/06 03:38:41;;;;;;;;;;;;;;;;;;4162558;28;19921;-64
2024/02/06 03:40:42;;;;;;;;;;;;;;;;;;4162915;28;19921;-65
2024/02/06 03:42:44;;;;;;;;;;;;;;;;;;4162662;28;19982;-64
2024/02/06 03:44:45;;;;;;;;;;;;;;;;;;4162745;28;19959;-65
2024/02/06 03:46:47;;;;;;;;;;;;;;;;;;4165574;28;20019;-65
2024/02/06 03:48:48;;;;;;;;;;;;;;;;;;4167558;28;19948;-65
2024/02/06 03:50:50;;;;;;;;;;;;;;;;;;4167288;28;20318;-65
2024/02/06 03:52:51;;;;;;;;;;;;;;;;;;4167692;28;19928;-64
2024/02/06 03:54:53;;;;;;;;;;;;;;;;;;4167491;28;19921;-64
2024/02/06 03:56:54;;;;;;;;;;;;;;;;;;4166712;28;20295;-65
2024/02/06 03:58:55;;;;;;;;;;;;;;;;;;4149862;28;20371;-65
2024/02/06 04:00:57;;;;;;;;;;;;;;;;;;4150882;28;19926;-65
2024/02/06 04:02:59;;;;;;;;;;;;;;;;;;4150625;28;19948;-64
2024/02/06 04:05:01;;;;;;;;;;;;;;;;;;4150020;28;19952;-65
2024/02/06 04:07:02;;;;;;;;;;;;;;;;;;4149977;28;19921;-65
2024/02/06 04:09:06;;;;;;;;;;;;;;;;;;4149853;28;20392;-66
2024/02/06 04:11:09;;;;;;;;;;;;;;;;;;4165714;28;19925;-65
2024/02/06 04:13:11;;;;;;;;;;;;;;;;;;4166478;28;20066;-64
2024/02/06 04:15:15;;;;;;;;;;;;;;;;;;4181651;28;19925;-64
2024/02/06 04:17:16;;;;;;;;;;;;;;;;;;4166089;28;20016;-64
2024/02/06 04:19:18;;;;;;;;;;;;;;;;;;4166117;28;19980;-64
2024/02/06 04:21:20;;;;;;;;;;;;;;;;;;4154128;28;19921;-66
2024/02/06 04:23:21;;;;;;;;;;;;;;;;;;4149735;28;19929;-65
2024/02/06 04:25:23;;;;;;;;;;;;;;;;;;4149812;28;19921;-58
2024/02/06 04:27:24;;;;;;;;;;;;;;;;;;4149884;28;20365;-59
2024/02/06 04:29:26;;;;;;;;;;;;;;;;;;4149506;28;20373;-58
2024/02/06 04:31:27;;;;;;;;;;;;;;;;;;4149597;28;19926;-59
2024/02/06 04:33:29;;;;;;;;;;;;;;;;;;4149896;28;19921;-59
2024/02/06 04:35:31;;;;;;;;;;;;;;;;;;4156766;28;19921;-59
2024/02/06 04:37:33;;;;;;;;;;;;;;;;;;4166041;28;19925;-59
2024/02/06 04:39:35;;;;;;;;;;;;;;;;;;4165881;28;19921;-58
2024/02/06 04:41:37;;;;;;;;;;;;;;;;;;4166109;28;19994;-58
2024/02/06 04:43:38;;;;;;;;;;;;;;;;;;4165885;28;19929;-58
2024/02/06 04:45:40;;;;;;;;;;;;;;;;;;4165853;28;19929;-58
2024/02/06 04:47:41;;;;;;;;;;;;;;;;;;4165728;28;19921;-58
2024/02/06 04:49:43;;;;;;;;;;;;;;;;;;4165400;28;19932;-59
2024/02/06 04:51:46;;;;;;;;;;;;;;;;;;4165304;28;19960;-58
2024/02/06 04:53:48;;;;;;;;;;;;;;;;;;4149461;28;19926;-59
2024/02/06 04:55:49;;;;;;;;;;;;;;;;;;4149557;28;19926;-58
2024/02/06 04:57:51;;;;;;;;;;;;;;;;;;4156338;28;19921;-58
2024/02/06 04:59:52;;;;;;;;;;;;;;;;;;4165566;28;20361;-58
2024/02/06 05:01:54;;;;;;;;;;;;;;;;;;4180906;28;19978;-58
2024/02/06 05:03:55;;;;;;;;;;;;;;;;;;4119075;28;1340721;-59
2024/02/06 05:05:57;;;;;;;;;;;;;;;;;;4166490;28;19921;-58
2024/02/06 05:07:58;;;;;;;;;;;;;;;;;;4166314;28;19928;-58
2024/02/06 05:10:00;;;;;;;;;;;;;;;;;;4166605;28;19948;-59
2024/02/06 05:12:02;;;;;;;;;;;;;;;;;;4166301;28;20388;-59
2024/02/06 05:14:03;;;;;;;;;;;;;;;;;;4166873;28;19925;-58
2024/02/06 05:16:05;;;;;;;;;;;;;;;;;;4166389;28;19953;-59
2024/02/06 05:18:06;;;;;;;;;;;;;;;;;;4157479;28;20289;-59
2024/02/06 05:20:10;;;;;;;;;;;;;;;;;;4171600;28;19920;-58
2024/02/06 05:22:12;;;;;;;;;;;;;;;;;;4162422;28;19932;-58
2024/02/06 05:24:13;;;;;;;;;;;;;;;;;;4165982;28;19932;-59
2024/02/06 05:26:15;;;;;;;;;;;;;;;;;;4165316;28;19947;-58
2024/02/06 05:28:16;;;;;;;;;;;;;;;;;;4166071;28;20004;-58
2024/02/06 05:30:18;;;;;;;;;;;;;;;;;;4166023;28;20217;-59
2024/02/06 05:32:20;;;;;;;;;;;;;;;;;;4166218;28;19973;-59
2024/02/06 05:34:21;;;;;;;;;;;;;;;;;;4166551;28;19921;-59
2024/02/06 05:36:23;;;;;;;;;;;;;;;;;;4166272;28;19921;-64
2024/02/06 05:38:25;;;;;;;;;;;;;;;;;;4165826;28;20373;-64
2024/02/06 05:40:26;;;;;;;;;;;;;;;;;;4165826;28;20019;-65
2024/02/06 05:42:28;;;;;;;;;;;;;;;;;;4165961;28;20270;-64
2024/02/06 05:44:29;;;;;;;;;;;;;;;;;;4165838;28;19921;-65
2024/02/06 05:46:31;;;;;;;;;;;;;;;;;;4166020;28;20426;-65
2024/02/06 05:48:32;;;;;;;;;;;;;;;;;;4165983;28;19927;-65
2024/02/06 05:50:35;;;;;;;;;;;;;;;;;;4165479;28;19921;-66
2024/02/06 05:52:37;;;;;;;;;;;;;;;;;;4158406;28;19971;-64
2024/02/06 05:54:39;;;;;;;;;;;;;;;;;;4151931;28;20355;-64
2024/02/06 05:56:40;;;;;;;;;;;;;;;;;;4166151;28;19921;-65
2024/02/06 05:58:42;;;;;;;;;;;;;;;;;;4164106;28;19921;-65
2024/02/06 06:00:44;;;;;;;;;;;;;;;;;;4166039;28;19971;-64
2024/02/06 06:02:45;;;;;;;;;;;;;;;;;;4165998;28;19943;-65
2024/02/06 06:04:48;;;;;;;;;;;;;;;;;;4165562;28;20020;-65
2024/02/06 06:06:49;;;;;;;;;;;;;;;;;;4165706;28;19974;-65
2024/02/06 06:08:51;;;;;;;;;;;;;;;;;;4164715;28;19921;-64
2024/02/06 06:10:52;;;;;;;;;;;;;;;;;;4165502;28;19921;-65
2024/02/06 06:12:54;;;;;;;;;;;;;;;;;;4165662;28;20458;-64
2024/02/06 06:14:55;;;;;;;;;;;;;;;;;;4165791;28;19921;-64
2024/02/06 06:16:57;;;;;;;;;;;;;;;;;;4165619;28;20292;-64
2024/02/06 06:18:58;;;;;;;;;;;;;;;;;;4165616;28;19921;-64
2024/02/06 06:21:00;;;;;;;;;;;;;;;;;;4165163;28;19983;-65
2024/02/06 06:23:02;;;;;;;;;;;;;;;;;;4164003;28;19925;-65
2024/02/06 06:25:03;;;;;;;;;;;;;;;;;;4165127;28;19928;-65
2024/02/06 06:27:08;;;;;;;;;;;;;;;;;;4165038;28;19921;-65
2024/02/06 06:29:10;;;;;;;;;;;;;;;;;;4148889;28;19936;-64
2024/02/06 06:31:12;;;;;;;;;;;;;;;;;;4152821;28;20019;-65
2024/02/06 06:33:13;;;;;;;;;;;;;;;;;;4165017;28;20016;-65
2024/02/06 06:35:15;;;;;;;;;;;;;;;;;;4164932;28;19925;-65
2024/02/06 06:37:18;;;;;;;;;;;;;;;;;;4165359;28;20975;-60
2024/02/06 06:39:20;;;;;;;;;;;;;;;;;;4167724;28;19921;-61
2024/02/06 06:41:24;;;;;;;;;;;;;;;;;;4165432;28;20357;-60
2024/02/06 06:43:26;;;;;;;;;;;;;;;;;;4164684;28;19927;-60
2024/02/06 06:45:34;;;;;;;;;;;;;;;;;;4169131;28;19982;-61
2024/02/06 06:47:39;;;;;;;;;;;;;;;;;;4164980;28;19974;-60
2024/02/06 06:49:41;;;;;;;;;;;;;;;;;;4164451;28;19925;-61
2024/02/06 06:51:42;;;;;;;;;;;;;;;;;;4179826;28;19924;-61
2024/02/06 06:53:44;;;;;;;;;;;;;;;;;;4148499;28;19948;-60
2024/02/06 06:55:45;;;;;;;;;;;;;;;;;;4148688;28;19929;-61
2024/02/06 06:57:47;;;;;;;;;;;;;;;;;;4155436;28;20296;-60
2024/02/06 06:59:49;;;;;;;;;;;;;;;;;;4164538;28;19931;-61
2024/02/06 07:01:51;;;;;;;;;;;;;;;;;;4164685;28;20369;-60
2024/02/06 07:03:52;;;;;;;;;;;;;;;;;;4164651;28;19921;-60
2024/02/06 07:05:54;;;;;;;;;;;;;;;;;;4164655;28;20369;-60
2024/02/06 07:07:55;;;;;;;;;;;;;;;;;;4164552;28;20270;-60
2024/02/06 07:09:57;;;;;;;;;;;;;;;;;;4164627;28;20029;-60
2024/02/06 07:11:59;;;;;;;;;;;;;;;;;;4164380;28;20686;-60
2024/02/06 07:14:00;;;;;;;;;;;;;;;;;;4164626;28;19953;-60
2024/02/06 07:16:03;;;;;;;;;;;;;;;;;;4164550;28;19964;-60
2024/02/06 07:18:05;;;;;;;;;;;;;;;;;;4164460;28;19921;-61
2024/02/06 07:20:06;;;;;;;;;;;;;;;;;;4162322;28;20416;-60
2024/02/06 07:22:09;;;;;;;;;;;;;;;;;;4158469;28;19925;-60
2024/02/06 07:24:10;;;;;;;;;;;;;;;;;;4163279;28;20220;-60
2024/02/06 07:26:12;;;;;;;;;;;;;;;;;;4164650;28;20289;-60
2024/02/06 07:28:13;;;;;;;;;;;;;;;;;;4164320;28;19921;-60
2024/02/06 07:30:15;;;;;;;;;;;;;;;;;;4164368;28;20226;-60
2024/02/06 07:32:27;;;;;;;;;;;;;;;;;;4164677;28;19983;-60
2024/02/06 07:34:28;;;;;;;;;;;;;;;;;;4164331;28;19921;-61
2024/02/06 07:36:30;;;;;;;;;;;;;;;;;;4164373;28;19931;-60
2024/02/06 07:38:31;;;;;;;;;;;;;;;;;;4164336;28;19921;-60
2024/02/06 07:40:33;;;;;;;;;;;;;;;;;;4164405;28;20414;-60
2024/02/06 07:42:35;;;;;;;;;;;;;;;;;;4164351;28;19928;-60
2024/02/06 07:44:36;;;;;;;;;;;;;;;;;;4164493;28;20057;-61
2024/02/06 07:46:38;;;;;;;;;;;;;;;;;;4164480;28;19925;-60
2024/02/06 07:48:40;;;;;;;;;;;;;;;;;;4164234;28;19932;-60
2024/02/06 07:50:42;;;;;;;;;;;;;;;;;;4164301;28;19921;-60
2024/02/06 07:52:43;;;;;;;;;;;;;;;;;;4155991;28;19922;-60
2024/02/06 07:54:45;;;;;;;;;;;;;;;;;;4148173;28;20009;-60
2024/02/06 07:56:47;;;;;;;;;;;;;;;;;;4153715;28;19928;-60
2024/02/06 07:58:48;;;;;;;;;;;;;;;;;;4163894;28;20380;-61
2024/02/06 08:00:50;;;;;;;;;;;;;;;;;;4164191;28;20059;-60
2024/02/06 08:02:51;;;;;;;;;;;;;;;;;;4162838;28;19920;-60
2024/02/06 08:04:54;;;;;;;;;;;;;;;;;;4164160;28;19921;-60
2024/02/06 08:06:56;;;;;;;;;;;;;;;;;;4164248;28;20395;-61
2024/02/06 08:08:58;;;;;;;;;;;;;;;;;;4164389;28;19925;-62
2024/02/06 08:10:59;;;;;;;;;;;;;;;;;;4164154;28;19921;-61
2024/02/06 08:13:01;;;;;;;;;;;;;;;;;;4163778;28;19928;-61
2024/02/06 08:15:04;;;;;;;;;;;;;;;;;;4164162;28;20300;-62
2024/02/06 08:17:05;;;;;;;;;;;;;;;;;;4164124;28;20376;-61
2024/02/06 08:19:08;;;;;;;;;;;;;;;;;;4163998;28;19929;-61
2024/02/06 08:21:10;;;;;;;;;;;;;;;;;;4164186;28;19968;-62
2024/02/06 08:23:12;;;;;;;;;;;;;;;;;;4164083;28;19921;-62
2024/02/06 08:25:15;;;;;;;;;;;;;;;;;;4147891;28;19925;-62
2024/02/06 08:27:17;;;;;;;;;;;;;;;;;;4147659;28;19972;-62
2024/02/06 08:29:18;;;;;;;;;;;;;;;;;;4147619;28;20369;-61
2024/02/06 08:31:23;;;;;;;;;;;;;;;;;;4147658;28;19926;-61
2024/02/06 08:33:24;;;;;;;;;;;;;;;;;;4150516;28;19957;-61
2024/02/06 08:35:26;;;;;;;;;;;;;;;;;;4156935;28;19921;-61
2024/02/06 08:37:27;;;;;;;;;;;;;;;;;;4166911;28;19920;-61
2024/02/06 08:39:29;;;;;;;;;;;;;;;;;;4166845;28;19984;-61
2024/02/06 08:41:31;;;;;;;;;;;;;;;;;;4166849;28;19928;-61
2024/02/06 08:43:32;;;;;;;;;;;;;;;;;;4167144;28;19967;-61
2024/02/06 08:45:42;;;;;;;;;;;;;;;;;;4167153;28;20407;-61
2024/02/06 08:47:44;;;;;;;;;;;;;;;;;;4165513;28;19921;-61
2024/02/06 08:49:45;;;;;;;;;;;;;;;;;;4166770;28;20004;-62
2024/02/06 08:51:47;;;;;;;;;;;;;;;;;;4165940;28;20300;-62
2024/02/06 08:53:49;;;;;;;;;;;;;;;;;;4162728;28;19975;-61
2024/02/06 08:55:50;;;;;;;;;;;;;;;;;;4166972;28;19936;-61
2024/02/06 08:57:52;;;;;;;;;;;;;;;;;;4166345;28;19920;-62
2024/02/06 08:59:54;;;;;;;;;;;;;;;;;;4166589;28;20395;-62
2024/02/06 09:01:55;;;;;;;;;;;;;;;;;;4166586;28;19920;-62
2024/02/06 09:03:57;;;;;;;;;;;;;;;;;;4166311;28;19921;-62
2024/02/06 09:06:07;;;;;;;;;;;;;;;;;;4166612;28;19921;-62
2024/02/06 09:08:11;;;;;;;;;;;;;;;;;;4166305;28;19927;-61
2024/02/06 09:10:13;;;;;;;;;;;;;;;;;;4166438;28;19921;-62
2024/02/06 09:12:14;;;;;;;;;;;;;;;;;;4166354;28;19925;-62
2024/02/06 09:14:16;;;;;;;;;;;;;;;;;;4166435;28;20044;-62
2024/02/06 09:16:19;;;;;;;;;;;;;;;;;;4166335;28;20332;-62
2024/02/06 09:18:20;;;;;;;;;;;;;;;;;;4166487;28;19929;-61
2024/02/06 09:20:22;;;;;;;;;;;;;;;;;;4165934;28;20479;-61
2024/02/06 09:22:24;;;;;;;;;;;;;;;;;;4166163;28;19953;-60
2024/02/06 09:24:25;;;;;;;;;;;;;;;;;;4166187;28;19928;-60
2024/02/06 09:26:26;;;;;;;;;;;;;;;;;;4166290;28;19928;-60
2024/02/06 09:28:29;;;;;;;;;;;;;;;;;;4166414;28;19932;-60
2024/02/06 09:30:31;;;;;;;;;;;;;;;;;;4166379;28;20299;-61
2024/02/06 09:32:32;;;;;;;;;;;;;;;;;;4166020;28;19921;-60
2024/02/06 09:34:34;;;;;;;;;;;;;;;;;;4166580;28;19921;-61
2024/02/06 09:36:38;;;;;;;;;;;;;;;;;;4166243;28;20015;-60
2024/02/06 09:38:39;;;;;;;;;;;;;;;;;;4166295;28;19982;-60
2024/02/06 09:40:41;;;;;;;;;;;;;;;;;;4165824;28;20323;-60
2024/02/06 09:42:45;;;;;;;;;;;;;;;;;;4165654;28;19921;-60
2024/02/06 09:44:46;;;;;;;;;;;;;;;;;;4165042;28;19975;-61
2024/02/06 09:46:48;;;;;;;;;;;;;;;;;;4165828;28;19921;-61
2024/02/06 09:48:50;;;;;;;;;;;;;;;;;;4167873;28;19925;-61
2024/02/06 09:50:52;;;;;;;;;;;;;;;;;;4181923;28;19927;-60
2024/02/06 09:52:53;;;;;;;;;;;;;;;;;;4172326;28;19921;-60
2024/02/06 09:54:55;;;;;;;;;;;;;;;;;;4165632;28;20261;-60
2024/02/06 09:56:56;;;;;;;;;;;;;;;;;;4165014;28;19971;-59
2024/02/06 09:59:01;;;;;;;;;;;;;;;;;;4163926;28;19927;-60
2024/02/06 10:01:04;;;;;;;;;;;;;;;;;;4165108;28;19925;-60
2024/02/06 10:03:06;;;;;;;;;;;;;;;;;;4165549;28;19921;-60
2024/02/06 10:05:07;;;;;;;;;;;;;;;;;;4165860;28;20299;-60
2024/02/06 10:07:09;;;;;;;;;;;;;;;;;;4165600;28;20353;-60
2024/02/06 10:09:10;;;;;;;;;;;;;;;;;;4165381;28;20447;-60
2024/02/06 10:11:12;;;;;;;;;;;;;;;;;;4165471;28;19925;-60
2024/02/06 10:13:13;;;;;;;;;;;;;;;;;;4165305;28;19967;-59
2024/02/06 10:15:15;;;;;;;;;;;;;;;;;;4165286;28;19931;-61
2024/02/06 10:17:18;;;;;;;;;;;;;;;;;;4165229;28;20495;-60
2024/02/06 10:19:20;;;;;;;;;;;;;;;;;;4163935;28;20367;-60
2024/02/06 10:21:22;;;;;;;;;;;;;;;;;;4151754;28;19968;-59
2024/02/06 10:23:26;;;;;;;;;;;;;;;;;;4148985;28;19925;-60
2024/02/06 10:25:28;;;;;;;;;;;;;;;;;;4148855;28;20242;-60
2024/02/06 10:27:29;;;;;;;;;;;;;;;;;;4151822;28;20308;-60
2024/02/06 10:29:34;;;;;;;;;;;;;;;;;;4165057;28;19995;-60
2024/02/06 10:31:37;;;;;;;;;;;;;;;;;;4165196;28;20373;-60
2024/02/06 10:33:39;;;;;;;;;;;;;;;;;;4165264;28;19921;-60
2024/02/06 10:35:42;;;;;;;;;;;;;;;;;;4164964;28;20406;-60
2024/02/06 10:37:44;;;;;;;;;;;;;;;;;;4165100;28;20055;-59
2024/02/06 10:39:46;;;;;;;;;;;;;;;;;;4164984;28;20328;-60
2024/02/06 10:41:48;;;;;;;;;;;;;;;;;;4163421;28;19925;-60
2024/02/06 10:44:10;;;;;;;;;;;;;;;;;;4164502;28;19929;-60
2024/02/06 10:46:12;;;;;;;;;;;;;;;;;;4176509;28;19921;-60
2024/02/06 10:48:13;;;;;;;;;;;;;;;;;;4181256;28;19948;-61
2024/02/06 10:50:15;;;;;;;;;;;;;;;;;;4181169;28;20011;-61
2024/02/06 10:52:19;;;;;;;;;;;;;;;;;;4176044;28;19948;-60
2024/02/06 10:54:21;;;;;;;;;;;;;;;;;;4148321;28;20371;-60
2024/02/06 10:56:23;;;;;;;;;;;;;;;;;;4151707;28;19971;-60
2024/02/06 10:58:24;;;;;;;;;;;;;;;;;;4155334;28;19925;-60
2024/02/06 11:00:26;;;;;;;;;;;;;;;;;;4158619;28;19921;-60
2024/02/06 11:02:28;;;;;;;;;;;;;;;;;;4164533;28;19956;-62
2024/02/06 11:04:44;;;;;;;;;;;;;;;;;;4151578;28;19921;-60
2024/02/06 11:06:46;;;;;;;;;;;;;;;;;;4163749;28;19928;-60
2024/02/06 11:08:48;;;;;;;;;;;;;;;;;;4164784;28;19920;-61
2024/02/06 11:10:49;;;;;;;;;;;;;;;;;;4164617;28;19972;-61
2024/02/06 11:12:53;;;;;;;;;;;;;;;;;;4157673;28;19929;-60
2024/02/06 11:14:54;;;;;;;;;;;;;;;;;;4156159;28;19951;-60
2024/02/06 11:16:56;;;;;;;;;;;;;;;;;;4160788;28;19979;-60
2024/02/06 11:18:57;;;;;;;;;;;;;;;;;;4176293;28;20423;-61
2024/02/06 11:20:59;;;;;;;;;;;;;;;;;;4158168;28;19932;-60
2024/02/06 11:23:00;;;;;;;;;;;;;;;;;;4167867;28;19925;-60
2024/02/06 11:25:02;;;;;;;;;;;;;;;;;;4165545;28;19921;-61
2024/02/06 11:27:04;;;;;;;;;;;;;;;;;;4161897;28;19921;-59
2024/02/06 11:29:07;;;;;;;;;;;;;;;;;;4164716;28;20284;-60
2024/02/06 11:31:08;;;;;;;;;;;;;;;;;;4169875;28;19921;-60
2024/02/06 11:33:10;;;;;;;;;;;;;;;;;;4167409;28;19928;-61
2024/02/06 11:35:11;;;;;;;;;;;;;;;;;;4162758;28;20020;-60
2024/02/06 11:37:13;;;;;;;;;;;;;;;;;;4156405;28;19956;-61
2024/02/06 11:39:18;;;;;;;;;;;;;;;;;;4165187;28;20372;-60
2024/02/06 11:41:23;;;;;;;;;;;;;;;;;;4166051;28;19922;-60
2024/02/06 11:43:24;;;;;;;;;;;;;;;;;;4180749;28;19920;-60
2024/02/06 11:45:26;;;;;;;;;;;;;;;;;;4180799;28;20361;-60
2024/02/06 11:47:27;;;;;;;;;;;;;;;;;;4170079;28;19925;-60
2024/02/06 11:49:29;;;;;;;;;;;;;;;;;;4163885;28;19931;-65
2024/02/06 11:51:32;;;;;;;;;;;;;;;;;;4163962;28;20369;-65
2024/02/06 11:53:33;;;;;;;;;;;;;;;;;;4162938;28;19956;-65
2024/02/06 11:55:35;;;;;;;;;;;;;;;;;;4164293;28;19967;-65
2024/02/06 11:57:37;;;;;;;;;;;;;;;;;;4163958;28;19959;-65
2024/02/06 11:59:39;;;;;;;;;;;;;;;;;;4164102;28;19925;-65
2024/02/06 12:01:44;;;;;;;;;;;;;;;;;;4164422;28;20337;-65
2024/02/06 12:03:45;;;;;;;;;;;;;;;;;;4162789;28;19921;-66
2024/02/06 12:05:49;;;;;;;;;;;;;;;;;;4164020;28;19952;-65
2024/02/06 12:07:51;;;;;;;;;;;;;;;;;;4166368;28;20300;-65
2024/02/06 12:09:53;;;;;;;;;;;;;;;;;;4167378;28;19925;-65
2024/02/06 12:11:55;;;;;;;;;;;;;;;;;;4167351;28;20392;-65
2024/02/06 12:13:56;;;;;;;;;;;;;;;;;;4167523;28;19967;-65
2024/02/06 12:15:57;;;;;;;;;;;;;;;;;;4167374;28;19921;-65
2024/02/06 12:17:59;;;;;;;;;;;;;;;;;;4182595;28;20011;-65
2024/02/06 12:20:05;;;;;;;;;;;;;;;;;;4165756;28;20400;-65
2024/02/06 12:22:12;;;;;;;;;;;;;;;;;;4150911;28;20261;-65
2024/02/06 12:24:14;;;;;;;;;;;;;;;;;;4156837;28;19925;-65
2024/02/06 12:26:15;;;;;;;;;;;;;;;;;;4171317;28;19921;-65
2024/02/06 12:28:17;;;;;;;;;;;;;;;;;;4167015;28;19921;-65
2024/02/06 12:30:18;;;;;;;;;;;;;;;;;;4166958;28;19934;-65
2024/02/06 12:32:20;;;;;;;;;;;;;;;;;;4166981;28;19978;-64
2024/02/06 12:34:22;;;;;;;;;;;;;;;;;;4166974;28;20440;-65
2024/02/06 12:36:23;;;;;;;;;;;;;;;;;;4166557;28;20016;-67
2024/02/06 12:38:25;;;;;;;;;;;;;;;;;;4170784;28;19997;-62
2024/02/06 12:40:27;;;;;;;;;;;;;;;;;;4166813;28;19959;-61
2024/02/06 12:42:29;;;;;;;;;;;;;;;;;;4166958;28;20278;-62
2024/02/06 12:44:31;;;;;;;;;;;;;;;;;;4167106;28;19921;-62
2024/02/06 12:46:44;;;;;;;;;;;;;;;;;;4166941;28;19921;-62
2024/02/06 12:48:46;;;;;;;;;;;;;;;;;;4166787;28;19927;-62
2024/02/06 12:50:47;;;;;;;;;;;;;;;;;;4166495;28;20442;-62
2024/02/06 12:52:51;;;;;;;;;;;;;;;;;;4166643;28;20296;-62
2024/02/06 12:54:53;;;;;;;;;;;;;;;;;;4166672;28;19921;-62
2024/02/06 12:56:56;;;;;;;;;;;;;;;;;;4166227;28;20020;-62
2024/02/06 12:58:57;;;;;;;;;;;;;;;;;;4182181;28;19943;-63
2024/02/06 13:01:00;;;;;;;;;;;;;;;;;;4166397;28;19986;-62
2024/02/06 13:03:02;;;;;;;;;;;;;;;;;;4164826;28;20373;-62
2024/02/06 13:05:03;;;;;;;;;;;;;;;;;;4159923;28;19975;-62
2024/02/06 13:07:05;;;;;;;;;;;;;;;;;;4166511;28;19921;-62
2024/02/06 13:09:10;;;;;;;;;;;;;;;;;;4164213;28;19932;-62
2024/02/06 13:11:12;;;;;;;;;;;;;;;;;;4166171;28;20349;-62
2024/02/06 13:13:14;;;;;;;;;;;;;;;;;;4166338;28;19925;-62
2024/02/06 13:15:15;;;;;;;;;;;;;;;;;;4166456;28;19975;-62
2024/02/06 13:17:17;;;;;;;;;;;;;;;;;;4164905;28;20100;-63
2024/02/06 13:19:18;;;;;;;;;;;;;;;;;;4165090;28;19932;-61
2024/02/06 13:21:20;;;;;;;;;;;;;;;;;;4161647;28;20365;-62
2024/02/06 13:23:23;;;;;;;;;;;;;;;;;;4165103;28;19975;-62
2024/02/06 13:25:24;;;;;;;;;;;;;;;;;;4163101;28;19927;-62
2024/02/06 13:27:28;;;;;;;;;;;;;;;;;;4165490;28;20391;-63
2024/02/06 13:29:29;;;;;;;;;;;;;;;;;;4149721;28;19991;-62
2024/02/06 13:31:31;;;;;;;;;;;;;;;;;;4149706;28;19925;-62
2024/02/06 13:33:37;;;;;;;;;;;;;;;;;;4150324;28;19928;-62
2024/02/06 13:35:38;;;;;;;;;;;;;;;;;;4182499;28;19952;-62
2024/02/06 13:37:40;;;;;;;;;;;;;;;;;;4179493;28;19943;-62
2024/02/06 13:39:42;;;;;;;;;;;;;;;;;;4165943;28;19928;-62
2024/02/06 13:41:45;;;;;;;;;;;;;;;;;;4165780;28;19925;-62
2024/02/06 13:43:46;;;;;;;;;;;;;;;;;;4157957;28;19921;-62
2024/02/06 13:45:50;;;;;;;;;;;;;;;;;;4156043;28;19972;-62
2024/02/06 13:47:51;;;;;;;;;;;;;;;;;;4149415;28;19952;-62
2024/02/06 13:49:53;;;;;;;;;;;;;;;;;;4148926;28;19921;-62
2024/02/06 13:51:54;;;;;;;;;;;;;;;;;;4151105;28;19921;-62
2024/02/06 13:53:56;;;;;;;;;;;;;;;;;;4165699;28;19928;-62